Nanticoke — VCQL — position and weather

sailwx.info

Track history (hours):
 
Tides and Currents Weather Stations Pressure Air Temp Water Temp Dewpoint Dewpoint Depression Visibility Wind Speed Wind Dir Waves Ship Positions

Nanticoke

Last reported at 2014-Oct-22 14:33 UTC. Time now 2014-Oct-22 15:33 UTC.
Position N 45°32' W 073°32'.

Length 222 m; draft 7.4 m.

Type: Cargo ship. MMSI: 316043000.

Date/timePositionNaut miles runAvg speedWind from/ knotsBaromVisibWave heightAir tempDewpointWater temp
2014-Oct-22 14:33N 45°32' W 073°32'0 0.0
2014-Oct-22 13:33N 45°32' W 073°32'0 0.0
2014-Oct-22 12:33N 45°32' W 073°32'0 0.0
2014-Oct-22 11:33N 45°32' W 073°32'0 0.0
2014-Oct-22 10:33N 45°32' W 073°32'1 0.7
2014-Oct-22 09:33N 45°33' W 073°32'8 8.1
2014-Oct-22 08:33N 45°40' W 073°28'8 8.4
2014-Oct-22 07:33N 45°47' W 073°21'9 8.7
2014-Oct-22 06:33N 45°54' W 073°13'10 8.4
2014-Oct-22 05:23N 46°03' W 073°08'18 8.9
2014-Oct-22 03:20N 46°14' W 072°47'7 9.4
2014-Oct-22 02:33N 46°17' W 072°37'9 8.9
2014-Oct-22 01:33N 46°23' W 072°27'10 9.7
2014-Oct-22 00:33N 46°28' W 072°15'  
2014-Oct-16 20:32N 47°24' W 052°34'1211.8
2014-Oct-16 19:31N 47°36' W 052°33'25 0.8
2014-Oct-15 13:20N 47°38' W 053°10'23 4.8
2014-Oct-15 08:30N 47°40' W 052°36'8 7.5
2014-Oct-15 07:29N 47°32' W 052°35'7 7.4
2014-Oct-15 06:30N 47°25' W 052°35'7 7.4
2014-Oct-15 05:31N 47°18' W 052°39'8 7.3
2014-Oct-15 04:28N 47°11' W 052°43'  
Track history (hours):
 
Tides and Currents Weather Stations Pressure Air Temp Water Temp Dewpoint Dewpoint Depression Visibility Wind Speed Wind Dir Waves Ship Positions

Nanticoke

Last reported at 2014-Oct-22 14:33 UTC. Time now 2014-Oct-22 15:33 UTC.
Position N 45°32' W 073°32'.

Length 222 m; draft 7.4 m.

Type: Cargo ship. MMSI: 316043000.

Date/timePositionNaut miles runAvg speedWind from/ knotsBaromVisibWave heightAir tempDewpointWater temp
2014-Oct-22 14:33N 45°32' W 073°32'0 0.0
2014-Oct-22 13:33N 45°32' W 073°32'0 0.0
2014-Oct-22 12:33N 45°32' W 073°32'0 0.0
2014-Oct-22 11:33N 45°32' W 073°32'0 0.0
2014-Oct-22 10:33N 45°32' W 073°32'1 0.7
2014-Oct-22 09:33N 45°33' W 073°32'8 8.1
2014-Oct-22 08:33N 45°40' W 073°28'8 8.4
2014-Oct-22 07:33N 45°47' W 073°21'9 8.7
2014-Oct-22 06:33N 45°54' W 073°13'10 8.4
2014-Oct-22 05:23N 46°03' W 073°08'18 8.9
2014-Oct-22 03:20N 46°14' W 072°47'7 9.4
2014-Oct-22 02:33N 46°17' W 072°37'9 8.9
2014-Oct-22 01:33N 46°23' W 072°27'10 9.7
2014-Oct-22 00:33N 46°28' W 072°15'  
2014-Oct-16 20:32N 47°24' W 052°34'1211.8
2014-Oct-16 19:31N 47°36' W 052°33'25 0.8
2014-Oct-15 13:20N 47°38' W 053°10'23 4.8
2014-Oct-15 08:30N 47°40' W 052°36'8 7.5
2014-Oct-15 07:29N 47°32' W 052°35'7 7.4
2014-Oct-15 06:30N 47°25' W 052°35'7 7.4
2014-Oct-15 05:31N 47°18' W 052°39'8 7.3
2014-Oct-15 04:28N 47°11' W 052°43'  

Dump ship's entire track history